createdAt,value
2019-02-25T00:01:00.764Z,27.95
2019-02-25T00:06:07.492Z,34.80
2019-02-25T00:11:19.499Z,29.45
2019-02-25T00:16:25.111Z,31.40
2019-02-25T00:21:30.507Z,33.23
2019-02-25T00:26:36.408Z,34.40
2019-02-25T00:31:41.494Z,34.17
2019-02-25T00:36:46.734Z,32.85
2019-02-25T00:41:51.764Z,31.73
2019-02-25T00:46:56.924Z,33.92
2019-02-25T00:52:01.959Z,36.23
2019-02-25T00:57:08.969Z,36.03
2019-02-25T01:02:13.722Z,28.87
2019-02-25T01:07:18.797Z,27.37
2019-02-25T01:12:24.960Z,27.67
2019-02-25T01:17:30.501Z,28.45
2019-02-25T01:22:39.324Z,33.90
2019-02-25T01:27:44.432Z,34.92
2019-02-25T01:32:49.459Z,35.55
2019-02-25T01:37:54.536Z,36.55
2019-02-25T01:42:59.525Z,37.83
2019-02-25T01:48:04.616Z,37.30
2019-02-25T01:53:10.899Z,38.55
2019-02-25T01:58:16.017Z,42.13
2019-02-25T02:03:21.053Z,37.88
2019-02-25T02:08:26.140Z,37.38
2019-02-25T02:13:31.565Z,36.48
2019-02-25T02:18:47.018Z,35.17
2019-02-25T02:23:53.281Z,36.53
2019-02-25T02:28:58.661Z,32.58
2019-02-25T02:34:03.772Z,30.70
2019-02-25T02:39:08.762Z,35.23
2019-02-25T02:44:13.904Z,39.95
2019-02-25T02:49:18.910Z,39.50
2019-02-25T02:54:23.974Z,32.37
2019-02-25T02:59:29.027Z,32.10
2019-02-25T03:04:34.070Z,33.20
2019-02-25T03:09:39.644Z,34.23
2019-02-25T03:14:44.708Z,37.00
2019-02-25T03:19:49.780Z,36.10
2019-02-25T03:24:56.312Z,39.93
2019-02-25T03:30:01.358Z,44.53
2019-02-25T03:35:06.661Z,45.47
2019-02-25T03:40:13.556Z,50.60
2019-02-25T03:45:18.892Z,42.23
2019-02-25T03:50:23.912Z,42.80
2019-02-25T03:55:28.905Z,43.13
2019-02-25T04:00:33.929Z,39.73
2019-02-25T04:05:39.080Z,35.33
2019-02-25T04:10:44.096Z,41.27
2019-02-25T04:15:49.227Z,37.13
2019-02-25T04:20:54.483Z,34.67
2019-02-25T04:25:59.573Z,34.07
2019-02-25T04:31:04.557Z,32.67
2019-02-25T04:36:09.660Z,36.27
2019-02-25T04:41:14.732Z,40.93
2019-02-25T04:46:20.856Z,34.37
2019-02-25T04:51:26.038Z,29.63
2019-02-25T04:56:31.305Z,52.80
2019-02-25T05:01:36.405Z,33.23
2019-02-25T05:06:41.528Z,40.20
2019-02-25T05:11:46.516Z,46.87
2019-02-25T05:16:51.833Z,43.60
2019-02-25T05:21:57.125Z,43.97
2019-02-25T05:27:02.251Z,44.03
2019-02-25T05:32:07.705Z,41.83
2019-02-25T05:37:12.712Z,40.80
2019-02-25T05:42:18.121Z,44.87
2019-02-25T05:47:23.204Z,39.23
2019-02-25T05:52:28.222Z,36.97
2019-02-25T05:57:33.642Z,41.07
2019-02-25T06:02:38.748Z,41.00
2019-02-25T06:07:44.260Z,39.13
2019-02-25T06:12:49.665Z,44.17
2019-02-25T06:17:54.693Z,40.37
2019-02-25T06:22:59.836Z,39.03
2019-02-25T06:28:04.942Z,30.50
2019-02-25T06:33:10.493Z,31.13
2019-02-25T06:38:15.511Z,33.23
2019-02-25T06:43:20.530Z,35.20
2019-02-25T06:48:28.422Z,32.30
2019-02-25T06:53:33.526Z,32.57
2019-02-25T06:58:39.972Z,32.67
2019-02-25T07:03:46.756Z,28.03
2019-02-25T07:09:08.332Z,28.83
2019-02-25T07:14:33.768Z,37.40
2019-02-25T07:20:01.210Z,36.30
2019-02-25T07:25:37.369Z,31.60
2019-02-25T07:31:04.101Z,33.77
2019-02-25T07:36:26.583Z,31.73
2019-02-25T07:42:06.062Z,29.00
2019-02-25T07:47:16.572Z,27.07
2019-02-25T07:52:35.568Z,28.00
2019-02-25T07:58:11.594Z,28.03
2019-02-25T08:03:22.776Z,24.53
2019-02-25T08:08:49.660Z,23.27
2019-02-25T08:14:04.298Z,25.13
2019-02-25T08:19:34.916Z,26.77
2019-02-25T08:24:55.638Z,26.93
2019-02-25T08:30:19.644Z,32.27
2019-02-25T08:36:20.224Z,27.97
2019-02-25T08:41:33.052Z,24.20
2019-02-25T08:46:43.631Z,23.63
2019-02-25T08:51:48.760Z,23.63
2019-02-25T08:56:53.859Z,24.43
2019-02-25T09:01:58.901Z,22.90
2019-02-25T09:07:04.419Z,21.73
2019-02-25T09:12:09.908Z,21.80
2019-02-25T09:17:16.156Z,23.93
2019-02-25T09:22:21.314Z,23.13
2019-02-25T09:27:26.318Z,22.00
2019-02-25T10:43:29.622Z,22.10
2019-02-25T10:53:39.598Z,20.23
2019-02-25T10:58:44.774Z,19.27
2019-02-25T11:03:52.026Z,21.07
2019-02-25T11:09:04.602Z,21.15
2019-02-25T11:14:11.213Z,23.95
2019-02-25T11:19:16.777Z,22.45
2019-02-25T11:24:23.374Z,21.48
2019-02-25T11:29:28.624Z,24.85
2019-02-25T11:34:35.590Z,24.15
2019-02-25T11:39:40.544Z,24.57
2019-02-25T11:44:45.547Z,25.08
2019-02-25T11:49:50.943Z,22.80
2019-02-25T11:54:56.292Z,23.67
2019-02-25T12:00:01.710Z,23.07
2019-02-25T12:05:08.738Z,24.85
2019-02-25T12:10:13.934Z,24.45
2019-02-25T12:30:31.680Z,24.00
2019-02-25T13:11:06.936Z,22.20
2019-02-25T13:16:12.056Z,22.30
2019-02-25T13:21:17.556Z,22.17
2019-02-25T13:31:26.742Z,20.30
2019-02-25T13:36:31.794Z,20.72
2019-02-25T13:41:36.934Z,21.50
2019-02-25T13:46:42.047Z,21.48
2019-02-25T13:51:47.036Z,21.77
2019-02-25T13:56:56.416Z,21.35
2019-02-25T14:02:02.581Z,20.72
2019-02-25T14:07:08.124Z,21.77
2019-02-25T14:32:34.594Z,21.97
2019-02-25T14:37:39.521Z,21.95
2019-02-25T14:42:46.877Z,23.57
2019-02-25T14:47:55.389Z,24.35
2019-02-25T14:53:00.628Z,23.47
2019-02-25T15:03:20.066Z,19.52
2019-02-25T15:13:32.668Z,20.25
2019-02-25T16:14:29.799Z,22.22
2019-02-25T16:19:41.523Z,21.67
2019-02-25T16:24:43.601Z,25.00
2019-02-25T16:29:49.121Z,23.50
2019-02-25T16:34:55.608Z,24.07
2019-02-25T16:40:03.845Z,21.87
2019-02-25T16:45:14.158Z,21.27
2019-02-25T16:50:21.086Z,22.03
2019-02-25T16:55:27.800Z,26.57
2019-02-25T17:00:35.466Z,24.47
2019-02-25T17:05:42.087Z,23.18
2019-02-25T17:10:48.973Z,29.45
2019-02-25T17:15:54.198Z,26.80
2019-02-25T17:20:59.429Z,28.17
2019-02-25T17:26:05.980Z,28.23
2019-02-25T17:31:14.328Z,26.57
2019-02-25T17:36:19.374Z,30.05
2019-02-25T17:41:25.027Z,29.40
2019-02-25T17:46:32.540Z,30.33
2019-02-25T17:51:37.402Z,30.03
2019-02-25T17:56:43.124Z,30.10
2019-02-25T18:01:50.553Z,29.10
2019-02-25T18:06:55.798Z,29.00
2019-02-25T18:12:02.180Z,32.83
2019-02-25T18:17:08.317Z,31.93
2019-02-25T18:22:16.578Z,34.90
2019-02-25T18:27:20.875Z,30.00
2019-02-25T18:32:27.872Z,32.57
2019-02-25T18:37:35.285Z,34.73
2019-02-25T18:42:42.523Z,33.30
2019-02-25T18:47:47.686Z,34.40
2019-02-25T18:52:54.624Z,33.80
2019-02-25T18:58:00.292Z,32.65
2019-02-25T19:03:05.853Z,35.48
2019-02-25T19:08:15.072Z,36.48
2019-02-25T19:13:23.350Z,34.37
2019-02-25T19:18:29.474Z,33.20
2019-02-25T19:23:37.704Z,31.05
2019-02-25T19:28:45.965Z,30.82
2019-02-25T19:33:49.672Z,37.40
2019-02-25T19:38:55.824Z,33.60
2019-02-25T19:44:03.502Z,32.78
2019-02-25T19:49:09.330Z,33.73
2019-02-25T19:54:16.763Z,38.35
2019-02-25T19:59:24.077Z,33.13
2019-02-25T20:04:33.474Z,30.97
2019-02-25T20:09:40.322Z,33.25
2019-02-25T20:14:46.580Z,33.67
2019-02-25T20:19:50.393Z,35.52
2019-02-25T20:24:57.964Z,34.08
2019-02-25T20:30:05.355Z,31.93
2019-02-25T20:35:14.015Z,32.98
2019-02-25T20:40:21.830Z,36.80
2019-02-25T20:45:27.741Z,32.58
2019-02-25T20:50:34.142Z,33.20
2019-02-25T20:55:39.198Z,33.73
2019-02-25T21:00:46.607Z,30.97
2019-02-25T21:05:52.181Z,34.90
2019-02-25T21:10:59.166Z,34.13
2019-02-25T21:16:04.846Z,33.85
2019-02-25T21:21:13.980Z,34.85
2019-02-25T21:26:18.638Z,34.73
2019-02-25T21:31:24.511Z,36.38
2019-02-25T21:36:32.143Z,36.93
2019-02-25T21:41:39.115Z,36.75
2019-02-25T21:46:49.599Z,37.03
2019-02-25T21:51:52.087Z,35.52
2019-02-25T21:56:59.068Z,32.70
2019-02-25T22:02:04.523Z,37.93
2019-02-25T22:07:09.618Z,42.07
2019-02-25T22:12:14.814Z,38.17
2019-02-25T22:17:21.952Z,41.77
2019-02-25T22:22:28.853Z,39.05
2019-02-25T22:27:35.294Z,41.88
2019-02-25T22:32:41.243Z,38.42
2019-02-25T22:37:49.721Z,39.53
2019-02-25T22:42:54.959Z,37.55
2019-02-25T22:48:01.381Z,39.33
2019-02-25T22:53:08.903Z,39.55
2019-02-25T22:58:14.943Z,37.28
2019-02-25T23:03:22.812Z,36.63
2019-02-25T23:08:27.882Z,35.03
2019-02-25T23:13:32.981Z,35.13
2019-02-25T23:18:40.595Z,35.07
2019-02-25T23:23:45.620Z,35.40
2019-02-25T23:28:51.464Z,33.53
2019-02-25T23:33:57.679Z,38.67
2019-02-25T23:39:03.733Z,41.07
2019-02-25T23:44:12.632Z,38.45
2019-02-25T23:49:26.872Z,35.15
2019-02-25T23:54:26.060Z,35.85
2019-02-25T23:59:30.486Z,35.65
